Maldives Meteorological Service

METAR

Station
VRMM
METAR VRMM 260300Z 23014KT 9999 FEW017TCU BKN110 28/25 Q1011 NOSIG=
VRMH
METAR VRMH 260300Z 26005KT 9999 FEW017 FEW018CB BKN120 29/26 Q1010 CB NW=
VRMK
METAR VRMK 260300Z 23006KT 9999 FEW018 BKN130 30/26 Q1011=
VRMT
METAR VRMT 260300Z 20008KT 9999 FEW018TCU BKN120 29/25 Q1010=
VRMG
METAR VRMG 260300Z 20008KT 9999 SCT018 29/24 Q1011 NOSIG=
Last Updated : 2017-05-26 08:00:42

SPECI

Station
VRMM
VRMH
SPECI VRMH 252251Z 26009KT 9999 FEW017TCU BKN110 29/26 Q1007 RETS=
VRMK
VRMT
VRMG
Last Updated : 2017-05-26 08:00:42